Time;durP1;ratioP1;P1;durP2;ratioP2;P2;SDS_P1;SDS_P2;PMS_P1;PMS_P2;Temp;Humidity;BMP_temperature;BMP_pressure;BME280_temperature;BME280_humidity;BME280_pressure;Samples;Min_cycle;Max_cycle;Signal;HPM_P1;HPM_P2
2021/11/13 00:00:46;;;;;;;23.5;14.9;;;;;;;;;;;;;
2021/11/13 00:03:11;;;;;;;22;14;;;;;;;;;;;;;
2021/11/13 00:05:36;;;;;;;22.2;14;;;;;;;;;;;;;
2021/11/13 00:08:03;;;;;;;23.6;14.4;;;;;;;;;;;;;
2021/11/13 00:10:28;;;;;;;22.6;13.6;;;;;;;;;;;;;
2021/11/13 00:12:53;;;;;;;23.9;14.6;;;;;;;;;;;;;
2021/11/13 00:15:21;;;;;;;23.3;13;;;;;;;;;;;;;
2021/11/13 00:17:45;;;;;;;22.3;13;;;;;;;;;;;;;
2021/11/13 00:20:10;;;;;;;20.5;12.5;;;;;;;;;;;;;
2021/11/13 00:22:35;;;;;;;22.5;11.5;;;;;;;;;;;;;
2021/11/13 00:25:00;;;;;;;18.5;11.9;;;;;;;;;;;;;
2021/11/13 00:27:25;;;;;;;19.4;11.4;;;;;;;;;;;;;
2021/11/13 00:29:50;;;;;;;18.8;12.2;;;;;;;;;;;;;
2021/11/13 00:32:15;;;;;;;19;11.7;;;;;;;;;;;;;
2021/11/13 00:34:41;;;;;;;21;12.9;;;;;;;;;;;;;
2021/11/13 00:37:06;;;;;;;20.3;13;;;;;;;;;;;;;
2021/11/13 00:39:31;;;;;;;18.1;12.2;;;;;;;;;;;;;
2021/11/13 00:41:56;;;;;;;17.4;10.9;;;;;;;;;;;;;
2021/11/13 00:44:21;;;;;;;16.6;10.7;;;;;;;;;;;;;
2021/11/13 00:46:46;;;;;;;18.1;11.3;;;;;;;;;;;;;
2021/11/13 00:49:11;;;;;;;15.5;10.9;;;;;;;;;;;;;
2021/11/13 00:51:37;;;;;;;16.4;10.7;;;;;;;;;;;;;
2021/11/13 00:54:02;;;;;;;16.8;10.2;;;;;;;;;;;;;
2021/11/13 00:56:27;;;;;;;12.4;9.4;;;;;;;;;;;;;
2021/11/13 00:58:52;;;;;;;16.2;9.8;;;;;;;;;;;;;
2021/11/13 01:01:17;;;;;;;14.9;9.4;;;;;;;;;;;;;
2021/11/13 01:03:43;;;;;;;16.1;9.9;;;;;;;;;;;;;
2021/11/13 01:06:08;;;;;;;13;8.6;;;;;;;;;;;;;
2021/11/13 01:08:33;;;;;;;14.7;9.4;;;;;;;;;;;;;
2021/11/13 01:10:58;;;;;;;15.6;9.5;;;;;;;;;;;;;
2021/11/13 01:13:24;;;;;;;14.7;9.7;;;;;;;;;;;;;
2021/11/13 01:15:48;;;;;;;17.8;9.9;;;;;;;;;;;;;
2021/11/13 01:18:13;;;;;;;18;10.1;;;;;;;;;;;;;
2021/11/13 01:20:39;;;;;;;14;8.9;;;;;;;;;;;;;
2021/11/13 01:23:04;;;;;;;11.2;7.7;;;;;;;;;;;;;
2021/11/13 01:25:29;;;;;;;12.2;7.7;;;;;;;;;;;;;
2021/11/13 01:27:54;;;;;;;12.4;7.4;;;;;;;;;;;;;
2021/11/13 01:30:19;;;;;;;10.2;6.9;;;;;;;;;;;;;
2021/11/13 01:32:44;;;;;;;11.1;6.9;;;;;;;;;;;;;
2021/11/13 01:35:10;;;;;;;11;7.3;;;;;;;;;;;;;
2021/11/13 01:37:35;;;;;;;10.7;6.6;;;;;;;;;;;;;
2021/11/13 01:40:00;;;;;;;11.9;6.7;;;;;;;;;;;;;
2021/11/13 01:42:27;;;;;;;9.7;6.1;;;;;;;;;;;;;
2021/11/13 01:44:51;;;;;;;8.4;5.8;;;;;;;;;;;;;
2021/11/13 01:47:16;;;;;;;9.3;5.9;;;;;;;;;;;;;
2021/11/13 01:49:41;;;;;;;10;6;;;;;;;;;;;;;
2021/11/13 01:52:06;;;;;;;7.2;5.3;;;;;;;;;;;;;
2021/11/13 01:54:36;;;;;;;10.3;6.3;;;;;;;;;;;;;
2021/11/13 01:56:56;;;;;;;12.2;6.4;;;;;;;;;;;;;
2021/11/13 01:59:24;;;;;;;10.6;6;;;;;;;;;;;;;
2021/11/13 02:01:47;;;;;;;13.1;6.8;;;;;;;;;;;;;
2021/11/13 02:04:12;;;;;;;10.1;6.9;;;;;;;;;;;;;
2021/11/13 02:06:37;;;;;;;9.8;6.1;;;;;;;;;;;;;
2021/11/13 02:09:02;;;;;;;10.7;6.2;;;;;;;;;;;;;
2021/11/13 02:11:27;;;;;;;11.1;5.8;;;;;;;;;;;;;
2021/11/13 02:13:52;;;;;;;8.7;5.8;;;;;;;;;;;;;
2021/11/13 02:16:17;;;;;;;10.7;6.1;;;;;;;;;;;;;
2021/11/13 02:18:42;;;;;;;8.2;5.6;;;;;;;;;;;;;
2021/11/13 02:21:08;;;;;;;7.8;5.4;;;;;;;;;;;;;
2021/11/13 02:23:33;;;;;;;9.4;6.5;;;;;;;;;;;;;
2021/11/13 02:25:58;;;;;;;11.1;6.2;;;;;;;;;;;;;
2021/11/13 02:28:23;;;;;;;10.5;6.3;;;;;;;;;;;;;
2021/11/13 02:30:48;;;;;;;8.3;5.6;;;;;;;;;;;;;
2021/11/13 02:33:13;;;;;;;11.6;6.1;;;;;;;;;;;;;
2021/11/13 02:35:38;;;;;;;9.3;6.1;;;;;;;;;;;;;
2021/11/13 02:38:03;;;;;;;8.3;5.5;;;;;;;;;;;;;
2021/11/13 02:40:29;;;;;;;8.5;5.7;;;;;;;;;;;;;
2021/11/13 02:42:54;;;;;;;9.7;5.7;;;;;;;;;;;;;
2021/11/13 02:45:19;;;;;;;8.1;5.4;;;;;;;;;;;;;
2021/11/13 02:47:44;;;;;;;9;5.3;;;;;;;;;;;;;
2021/11/13 02:50:09;;;;;;;8.2;5.5;;;;;;;;;;;;;
2021/11/13 02:52:34;;;;;;;8.6;5.5;;;;;;;;;;;;;
2021/11/13 02:54:59;;;;;;;12.3;5.7;;;;;;;;;;;;;
2021/11/13 02:57:25;;;;;;;9.7;5.4;;;;;;;;;;;;;
2021/11/13 02:59:50;;;;;;;8.9;5.5;;;;;;;;;;;;;
2021/11/13 03:02:15;;;;;;;7.4;5.3;;;;;;;;;;;;;
2021/11/13 03:04:41;;;;;;;10.2;6;;;;;;;;;;;;;
2021/11/13 03:07:06;;;;;;;10.8;5.5;;;;;;;;;;;;;
2021/11/13 03:09:31;;;;;;;8.4;5.4;;;;;;;;;;;;;
2021/11/13 03:11:56;;;;;;;8.6;6;;;;;;;;;;;;;
2021/11/13 03:14:21;;;;;;;7.3;5.7;;;;;;;;;;;;;
2021/11/13 03:16:47;;;;;;;9.3;5.8;;;;;;;;;;;;;
2021/11/13 03:19:12;;;;;;;9.4;6;;;;;;;;;;;;;
2021/11/13 03:21:37;;;;;;;9.9;5.6;;;;;;;;;;;;;
2021/11/13 03:24:03;;;;;;;10.4;5.8;;;;;;;;;;;;;
2021/11/13 03:26:28;;;;;;;9.8;5.6;;;;;;;;;;;;;
2021/11/13 03:28:53;;;;;;;7.9;5.1;;;;;;;;;;;;;
2021/11/13 03:31:18;;;;;;;10.7;5.6;;;;;;;;;;;;;
2021/11/13 03:33:44;;;;;;;7.4;4.8;;;;;;;;;;;;;
2021/11/13 03:36:09;;;;;;;8.4;5.1;;;;;;;;;;;;;
2021/11/13 03:38:35;;;;;;;9;5.3;;;;;;;;;;;;;
2021/11/13 03:41:00;;;;;;;8.7;5.2;;;;;;;;;;;;;
2021/11/13 03:43:26;;;;;;;12.5;5.8;;;;;;;;;;;;;
2021/11/13 03:45:51;;;;;;;8.6;5;;;;;;;;;;;;;
2021/11/13 03:48:16;;;;;;;7.1;4.7;;;;;;;;;;;;;
2021/11/13 03:50:42;;;;;;;8.1;4.8;;;;;;;;;;;;;
2021/11/13 03:53:07;;;;;;;8.8;5.3;;;;;;;;;;;;;
2021/11/13 03:55:32;;;;;;;7.3;5;;;;;;;;;;;;;
2021/11/13 03:57:58;;;;;;;7.8;4.8;;;;;;;;;;;;;
2021/11/13 04:02:31;;;;;;;9.4;5.3;;;;;;;3.59;96.44824;936.337;;;;
2021/11/13 04:04:56;;;;;;;8.2;5.2;;;;;;;3.63;95.94824;936.3503;;;;
2021/11/13 04:07:23;;;;;;;8.4;5.3;;;;;;;3.66;95.39258;936.3646;;;;
2021/11/13 04:09:48;;;;;;;8.6;5.1;;;;;;;3.59;95.30176;936.4016;;;;
2021/11/13 04:12:15;;;;;;;9.3;5.1;;;;;;;3.58;94.32031;936.2656;;;;
2021/11/13 04:14:41;;;;;;;10.4;5;;;;;;;3.69;93.58984;936.3434;;;;
2021/11/13 04:17:05;;;;;;;8.7;4.7;;;;;;;3.7;93.69434;936.3508;;;;
2021/11/13 04:19:30;;;;;;;9.7;5.4;;;;;;;3.62;94.01563;936.4083;;;;
2021/11/13 04:21:55;;;;;;;8.4;4.7;;;;;;;3.6;94.20117;936.4207;;;;
2021/11/13 04:24:21;;;;;;;8.4;5.7;;;;;;;3.4;95.24609;936.4485;;;;
2021/11/13 04:26:46;;;;;;;8.3;5.6;;;;;;;3.28;95.80176;936.3176;;;;
2021/11/13 04:29:12;;;;;;;8.2;5.5;;;;;;;3.21;97.42578;936.3635;;;;
2021/11/13 04:31:37;;;;;;;8.2;5.4;;;;;;;3.14;98.16113;936.4041;;;;
2021/11/13 04:34:07;;;;;;;9.9;5.6;;;;;;;3.18;99.13477;936.3723;;;;
2021/11/13 04:36:33;;;;;;;8.5;5.4;;;;;;;3.1;99.5332;936.3516;;;;
2021/11/13 04:38:55;;;;;;;8;4.9;;;;;;;3.15;99.88086;936.3706;;;;
2021/11/13 04:41:22;;;;;;;9.7;5.7;;;;;;;3.15;98.95117;936.3306;;;;
2021/11/13 04:43:47;;;;;;;9.5;5.8;;;;;;;3.04;99.00488;936.3577;;;;
2021/11/13 04:46:14;;;;;;;7.3;5.3;;;;;;;2.99;100;936.3987;;;;
2021/11/13 04:48:39;;;;;;;9.2;5.4;;;;;;;3.12;100;936.3427;;;;
2021/11/13 04:51:04;;;;;;;8.3;5.3;;;;;;;3.17;100;936.3691;;;;
2021/11/13 04:53:29;;;;;;;9.9;5.4;;;;;;;3.18;100;936.3378;;;;
2021/11/13 04:55:54;;;;;;;8.7;5.3;;;;;;;3.17;100;936.387;;;;
2021/11/13 04:58:19;;;;;;;8;5.4;;;;;;;3.1;99.49805;936.3461;;;;
2021/11/13 05:00:44;;;;;;;8.6;5.6;;;;;;;3.02;99.24512;936.3937;;;;
2021/11/13 05:03:10;;;;;;;12.2;6.6;;;;;;;2.92;99.53613;936.3705;;;;
2021/11/13 05:05:35;;;;;;;11.1;6.6;;;;;;;3.03;99.02246;936.3602;;;;
2021/11/13 05:08:00;;;;;;;11;6.6;;;;;;;3.14;98.36328;936.4158;;;;
2021/11/13 05:10:26;;;;;;;11.6;7;;;;;;;3.25;98.70313;936.4207;;;;
2021/11/13 05:13:20;;;;;;;15.2;8.7;;;;;;;3.28;97.53223;936.4689;;;;
2021/11/13 05:15:46;;;;;;;14.8;8.4;;;;;;;3.3;96.75098;936.4626;;;;
2021/11/13 05:18:11;;;;;;;25;9.5;;;;;;;3.14;96.87109;936.4487;;;;
2021/11/13 05:20:36;;;;;;;17.9;9.6;;;;;;;3.1;96.97266;936.4562;;;;
2021/11/13 05:23:02;;;;;;;17.4;8.7;;;;;;;3.12;97.03516;936.4744;;;;
2021/11/13 05:25:42;;;;;;;12.4;7.1;;;;;;;3.02;98.38086;936.548;;;;
2021/11/13 05:28:08;;;;;;;12.1;7;;;;;;;2.95;97.85938;936.5231;;;;
2021/11/13 05:30:33;;;;;;;8.7;6.1;;;;;;;3.02;97.60742;936.4945;;;;
2021/11/13 05:33:24;;;;;;;9.7;6.5;;;;;;;3.1;96.87402;936.5036;;;;
2021/11/13 05:35:56;;;;;;;8.8;6.4;;;;;;;3.19;96.14258;936.4238;;;;
2021/11/13 05:38:19;;;;;;;9.7;5.8;;;;;;;3.19;95.99902;936.5003;;;;
2021/11/13 05:40:44;;;;;;;8.8;5.6;;;;;;;3.22;96.42969;936.562;;;;
2021/11/13 05:43:09;;;;;;;11.2;6;;;;;;;3.4;96.32422;936.5287;;;;
2021/11/13 05:45:34;;;;;;;7.4;5.3;;;;;;;3.36;97.96484;936.5322;;;;
2021/11/13 05:47:59;;;;;;;8.6;5.3;;;;;;;3.44;98.57813;936.62;;;;
2021/11/13 05:50:24;;;;;;;8.3;5.2;;;;;;;3.52;97.7998;936.6141;;;;
2021/11/13 05:52:50;;;;;;;8.6;5.8;;;;;;;3.57;97.17188;936.6227;;;;
2021/11/13 05:55:17;;;;;;;10.6;6.1;;;;;;;3.7;96.42578;936.6823;;;;
2021/11/13 05:58:34;;;;;;;8;5.8;;;;;;;3.79;95.67285;936.724;;;;
2021/11/13 06:01:00;;;;;;;7.8;5.4;;;;;;;3.75;95.27832;936.8083;;;;
2021/11/13 06:03:25;;;;;;;7.3;5.4;;;;;;;3.71;95.42773;936.856;;;;
2021/11/13 06:05:52;;;;;;;13.3;6.7;;;;;;;3.77;95.28418;936.95;;;;
2021/11/13 06:08:17;;;;;;;9.4;5.9;;;;;;;3.84;94.95215;937.0133;;;;
2021/11/13 06:10:43;;;;;;;11.2;6.6;;;;;;;3.76;93.58496;937.1041;;;;
2021/11/13 06:13:08;;;;;;;12;6.7;;;;;;;3.71;93.21387;937.3237;;;;
2021/11/13 06:15:37;;;;;;;8.3;5.7;;;;;;;3.65;93.85352;937.3059;;;;
2021/11/13 06:18:02;;;;;;;10.4;6.7;;;;;;;3.61;94.88867;937.3092;;;;
2021/11/13 06:20:27;;;;;;;10;5.8;;;;;;;3.68;95.21875;937.3933;;;;
2021/11/13 06:22:52;;;;;;;11.9;6.9;;;;;;;3.78;95.34277;937.3834;;;;
2021/11/13 06:25:17;;;;;;;9.9;5.8;;;;;;;3.75;95.75;937.402;;;;
2021/11/13 06:27:43;;;;;;;8.8;5.9;;;;;;;3.8;95.78516;937.4478;;;;
2021/11/13 06:30:08;;;;;;;10;5.9;;;;;;;3.7;96.08789;937.5209;;;;
2021/11/13 06:32:33;;;;;;;10.4;5.4;;;;;;;3.75;96.6416;937.4959;;;;
2021/11/13 06:34:59;;;;;;;9;5.5;;;;;;;3.71;96.95605;937.574;;;;
2021/11/13 06:37:57;;;;;;;13.6;8.7;;;;;;;3.75;97.08984;937.6242;;;;
2021/11/13 06:40:24;;;;;;;14.1;8.8;;;;;;;3.88;97.0957;937.5894;;;;
2021/11/13 06:42:49;;;;;;;12;7.6;;;;;;;3.87;97.18164;937.5929;;;;
2021/11/13 06:45:14;;;;;;;12.6;8.1;;;;;;;3.73;97.44531;937.6386;;;;
2021/11/13 06:47:40;;;;;;;13.8;8.6;;;;;;;3.92;97.20703;937.6633;;;;
2021/11/13 06:50:05;;;;;;;12.9;8.6;;;;;;;3.83;97.36621;937.6948;;;;
2021/11/13 06:52:30;;;;;;;16.8;11.1;;;;;;;4.13;96.60254;937.683;;;;
2021/11/13 06:54:55;;;;;;;16.7;10.6;;;;;;;4.23;96.08496;937.7;;;;
2021/11/13 06:57:20;;;;;;;12.9;9;;;;;;;4.36;95.37305;937.6789;;;;
2021/11/13 06:59:46;;;;;;;12.9;7.9;;;;;;;4.52;94.55078;937.7086;;;;
2021/11/13 07:02:11;;;;;;;9.9;7.3;;;;;;;4.71;93.47852;937.6995;;;;
2021/11/13 07:04:36;;;;;;;13.8;9;;;;;;;4.94;93.81152;937.7053;;;;
2021/11/13 07:07:01;;;;;;;12.1;7.4;;;;;;;5.27;91.60645;937.6111;;;;
2021/11/13 07:09:26;;;;;;;10.3;6.1;;;;;;;5.63;90.21484;937.6498;;;;
2021/11/13 07:11:52;;;;;;;7.1;4.8;;;;;;;5.94;88.60938;937.6641;;;;
2021/11/13 07:14:17;;;;;;;7.1;4.6;;;;;;;6.3;87.9375;937.54;;;;
2021/11/13 07:16:43;;;;;;;7.6;5;;;;;;;6.37;86.61816;937.5979;;;;
2021/11/13 07:19:09;;;;;;;8;4.9;;;;;;;6.49;87.73535;937.6214;;;;
2021/11/13 07:21:35;;;;;;;7.6;4.3;;;;;;;6.98;86.04785;937.5967;;;;
2021/11/13 07:24:00;;;;;;;6.7;4.4;;;;;;;7.54;83.53223;937.5981;;;;
2021/11/13 07:26:26;;;;;;;6.5;3.8;;;;;;;7.96;81.16113;937.5574;;;;
2021/11/13 07:28:52;;;;;;;6.4;3.6;;;;;;;8.88;77.76367;937.55;;;;
2021/11/13 07:31:18;;;;;;;8.6;4.2;;;;;;;9.67;74.47559;937.571;;;;
2021/11/13 07:33:43;;;;;;;6;3.9;;;;;;;9.58;75.37305;937.5443;;;;
2021/11/13 07:36:09;;;;;;;5.8;4.1;;;;;;;9.81;72.07227;937.6191;;;;
2021/11/13 07:38:34;;;;;;;7.6;4.5;;;;;;;9.63;72.28125;937.6057;;;;
2021/11/13 07:41:02;;;;;;;6.6;4.8;;;;;;;9.55;73.32715;937.524;;;;
2021/11/13 07:43:27;;;;;;;7.7;4.8;;;;;;;9.41;74.05566;937.5168;;;;
2021/11/13 07:45:52;;;;;;;7.7;4.9;;;;;;;9.42;76.93848;937.5758;;;;
2021/11/13 07:48:17;;;;;;;6.5;4.4;;;;;;;10.31;70.96875;937.5597;;;;
2021/11/13 07:50:43;;;;;;;6.1;4.4;;;;;;;10.8;67.7373;937.5476;;;;
2021/11/13 07:53:08;;;;;;;10.1;5.2;;;;;;;11.3;68.86719;937.4894;;;;
2021/11/13 07:55:34;;;;;;;10.1;5.3;;;;;;;11.68;65.84766;937.4789;;;;
2021/11/13 07:57:59;;;;;;;8;5.1;;;;;;;11.09;66.52441;937.3812;;;;
2021/11/13 08:00:26;;;;;;;9.8;5.2;;;;;;;10.34;68.38379;937.4756;;;;
2021/11/13 08:02:51;;;;;;;11.4;5.9;;;;;;;10.04;70.10449;937.4587;;;;
2021/11/13 08:05:16;;;;;;;9.5;6;;;;;;;10.59;67.98828;937.3864;;;;
2021/11/13 08:07:41;;;;;;;14.6;6.7;;;;;;;11.33;66.02148;937.334;;;;
2021/11/13 08:10:06;;;;;;;15.1;6.7;;;;;;;11.78;62.51953;937.2447;;;;
2021/11/13 08:12:32;;;;;;;11.1;6.7;;;;;;;12.75;60.54883;937.2947;;;;
2021/11/13 08:14:57;;;;;;;10.9;5.5;;;;;;;13.47;58.56738;937.2533;;;;
2021/11/13 08:17:22;;;;;;;15.5;7.1;;;;;;;13.6;56.48145;937.2888;;;;
2021/11/13 08:19:47;;;;;;;11.7;6;;;;;;;13.6;57.05566;937.2383;;;;
2021/11/13 08:22:12;;;;;;;8.8;5.3;;;;;;;12.73;59.5459;937.2651;;;;
2021/11/13 08:24:38;;;;;;;9;4.4;;;;;;;12.83;59.3877;937.2639;;;;
2021/11/13 08:27:03;;;;;;;7.7;4.5;;;;;;;12.29;61.9043;937.1855;;;;
2021/11/13 08:29:29;;;;;;;6.9;4.1;;;;;;;12.35;61.78711;937.2637;;;;
2021/11/13 08:31:54;;;;;;;5.8;4.3;;;;;;;11.96;62.72852;937.2139;;;;
2021/11/13 08:34:20;;;;;;;7.7;5;;;;;;;12.47;62.43457;937.1859;;;;
2021/11/13 08:36:45;;;;;;;7;4.8;;;;;;;12.84;60.88086;937.1472;;;;
2021/11/13 08:39:11;;;;;;;7.5;4.7;;;;;;;11.55;64.00879;937.1264;;;;
2021/11/13 08:41:36;;;;;;;6.4;4.3;;;;;;;11.87;63.94141;937.0725;;;;
2021/11/13 08:44:01;;;;;;;8.1;4.6;;;;;;;10.49;69.08008;937.0616;;;;
2021/11/13 08:46:29;;;;;;;8.6;5.3;;;;;;;9.52;72.87695;937.0467;;;;
2021/11/13 08:48:52;;;;;;;9.2;5.8;;;;;;;8.65;76.3457;937.0503;;;;
2021/11/13 08:51:17;;;;;;;10.5;6.5;;;;;;;9.23;75.45898;937.0891;;;;
2021/11/13 08:53:43;;;;;;;10.4;6.4;;;;;;;8.6;77.56543;937.0556;;;;
2021/11/13 08:56:12;;;;;;;7.3;5.1;;;;;;;8.81;77.0127;937.0316;;;;
2021/11/13 08:58:39;;;;;;;10.8;5.2;;;;;;;8.86;77.21387;936.9297;;;;
2021/11/13 09:01:04;;;;;;;10.2;4.8;;;;;;;8.79;76.90527;936.9459;;;;
2021/11/13 09:03:30;;;;;;;10.9;5.2;;;;;;;8.76;78.15137;937.0313;;;;
2021/11/13 09:05:55;;;;;;;10.9;4.8;;;;;;;8.97;77.4502;936.9542;;;;
2021/11/13 09:08:20;;;;;;;13.4;5.4;;;;;;;9.23;76.2793;936.9653;;;;
2021/11/13 09:10:45;;;;;;;6.3;3.7;;;;;;;9.6;74.16699;936.9285;;;;
2021/11/13 09:13:11;;;;;;;10.1;3.7;;;;;;;9.96;72.66797;936.9231;;;;
2021/11/13 09:15:36;;;;;;;8.3;3.8;;;;;;;10.25;71.67871;936.8358;;;;
2021/11/13 09:18:02;;;;;;;8.2;4.3;;;;;;;10.5;70.7959;936.8603;;;;
2021/11/13 09:20:27;;;;;;;6.7;4;;;;;;;10.83;69.91211;936.824;;;;
2021/11/13 09:22:52;;;;;;;6.3;4;;;;;;;10.67;69.65723;936.8594;;;;
2021/11/13 09:25:17;;;;;;;11.5;4.9;;;;;;;10.98;69.86816;936.8273;;;;
2021/11/13 09:27:42;;;;;;;10.6;5.8;;;;;;;10.9;70.21973;936.7798;;;;
2021/11/13 09:30:07;;;;;;;9.7;5.9;;;;;;;10.69;70.66504;936.7328;;;;
2021/11/13 09:32:32;;;;;;;11.9;5.7;;;;;;;10.41;71.875;936.6965;;;;
2021/11/13 09:34:58;;;;;;;11.1;5.7;;;;;;;10.82;71.0293;936.7021;;;;
2021/11/13 09:37:23;;;;;;;10.1;5.9;;;;;;;10.9;70.69922;936.65;;;;
2021/11/13 09:39:50;;;;;;;10.2;5.2;;;;;;;11.08;70.91211;936.6184;;;;
2021/11/13 09:42:15;;;;;;;9.7;5.2;;;;;;;11.16;70.74219;936.6395;;;;
2021/11/13 09:44:41;;;;;;;10.9;6.2;;;;;;;10.97;70.5293;936.6033;;;;
2021/11/13 09:47:06;;;;;;;14.3;7.7;;;;;;;10.83;71.85449;936.5963;;;;
2021/11/13 09:49:32;;;;;;;12.7;8.1;;;;;;;10.92;72.51953;936.5768;;;;
2021/11/13 09:51:57;;;;;;;16.6;9;;;;;;;10.96;73.4541;936.5444;;;;
2021/11/13 09:54:22;;;;;;;13.7;8.5;;;;;;;11.2;72.21191;936.5218;;;;
2021/11/13 09:56:47;;;;;;;14.3;7.7;;;;;;;11.14;70.87793;936.4498;;;;
2021/11/13 09:59:12;;;;;;;16.1;11;;;;;;;10.98;70.79395;936.4489;;;;
2021/11/13 10:01:41;;;;;;;11.3;6.1;;;;;;;11.09;70.40039;936.4615;;;;
2021/11/13 10:04:06;;;;;;;8.6;5.1;;;;;;;11.62;68.33398;936.4746;;;;
2021/11/13 10:06:32;;;;;;;9;5.4;;;;;;;11.74;67.26465;936.4461;;;;
2021/11/13 10:08:57;;;;;;;8.4;4.9;;;;;;;11.88;66.37012;936.3792;;;;
2021/11/13 10:11:22;;;;;;;10.1;5.2;;;;;;;12.21;66.23828;936.4023;;;;
2021/11/13 10:13:47;;;;;;;8.3;4.8;;;;;;;12.37;64.3125;936.3751;;;;
2021/11/13 10:16:14;;;;;;;8;4.8;;;;;;;12.76;64.72754;936.3792;;;;
2021/11/13 10:18:37;;;;;;;6.1;3.5;;;;;;;12.95;60.93164;936.3166;;;;
2021/11/13 10:21:03;;;;;;;5.4;3.4;;;;;;;13.28;61.47266;936.2748;;;;
2021/11/13 10:23:28;;;;;;;5.7;3.7;;;;;;;13.54;60.02539;936.2827;;;;
2021/11/13 10:25:54;;;;;;;6.3;4;;;;;;;13.73;58.86523;936.185;;;;
2021/11/13 10:28:19;;;;;;;8.1;3.8;;;;;;;13.91;59.17871;936.1945;;;;
2021/11/13 10:30:44;;;;;;;5.9;3;;;;;;;14.13;58.05762;936.162;;;;
2021/11/13 10:33:11;;;;;;;4.8;2.9;;;;;;;13.95;58.66602;936.1319;;;;
2021/11/13 10:35:36;;;;;;;5.1;3;;;;;;;14.14;58.23145;936.1548;;;;
2021/11/13 10:38:02;;;;;;;5.7;3.4;;;;;;;14.31;59.29004;936.1409;;;;
2021/11/13 10:40:27;;;;;;;5.4;2.8;;;;;;;14.42;58.41797;936.1595;;;;
2021/11/13 10:42:52;;;;;;;5;2.9;;;;;;;14.55;58.16016;936.161;;;;
2021/11/13 10:45:19;;;;;;;3.9;3.3;;;;;;;14.49;58.98047;936.1023;;;;
2021/11/13 10:47:46;;;;;;;6.4;3.6;;;;;;;14.67;59.8125;936.0776;;;;
2021/11/13 10:50:09;;;;;;;9;3.7;;;;;;;14.74;59.25586;936.0584;;;;
2021/11/13 10:52:34;;;;;;;13.4;7.3;;;;;;;14.63;62.23926;936.0059;;;;
2021/11/13 10:55:00;;;;;;;7;4.4;;;;;;;14.32;63.72559;935.9846;;;;
2021/11/13 10:57:25;;;;;;;7.8;4.8;;;;;;;14.37;63.74414;935.9586;;;;
2021/11/13 10:59:51;;;;;;;8.6;4.5;;;;;;;14.83;60.37598;935.8992;;;;
2021/11/13 11:02:16;;;;;;;6.5;4.6;;;;;;;14.83;60.01855;935.9095;;;;
2021/11/13 11:04:41;;;;;;;6.2;4.4;;;;;;;14.95;60.51953;935.8633;;;;
2021/11/13 11:07:06;;;;;;;6.9;4.6;;;;;;;15.18;60.04297;935.8778;;;;
2021/11/13 11:09:32;;;;;;;7.4;4.5;;;;;;;15.37;59.19336;935.9423;;;;
2021/11/13 11:11:57;;;;;;;7;4.2;;;;;;;15.36;58.1875;935.916;;;;
2021/11/13 11:14:23;;;;;;;6.8;4.3;;;;;;;15.04;59.32031;935.9428;;;;
2021/11/13 11:16:51;;;;;;;7.3;4.3;;;;;;;14.82;59.60156;935.8649;;;;
2021/11/13 11:19:15;;;;;;;6.3;4;;;;;;;14.39;60.80078;935.823;;;;
2021/11/13 11:21:40;;;;;;;10.1;4.2;;;;;;;14.24;61.14648;935.9092;;;;
2021/11/13 11:24:05;;;;;;;6;4.2;;;;;;;14.39;60.97168;935.7589;;;;
2021/11/13 11:26:30;;;;;;;5.9;3.9;;;;;;;14.04;62.22363;935.8538;;;;
2021/11/13 11:28:55;;;;;;;6.2;4;;;;;;;14.22;61.73242;935.81;;;;
2021/11/13 11:31:22;;;;;;;6.7;4.4;;;;;;;14.16;61.94238;935.8303;;;;
2021/11/13 11:33:47;;;;;;;6.7;4.5;;;;;;;14.25;61.56152;935.837;;;;
2021/11/13 11:36:12;;;;;;;6;4.2;;;;;;;14.07;61.91797;935.7374;;;;
2021/11/13 11:38:38;;;;;;;7;4.1;;;;;;;13.92;61.45898;935.735;;;;
2021/11/13 11:41:02;;;;;;;7.1;4.5;;;;;;;13.9;61.87012;935.6208;;;;
2021/11/13 11:43:31;;;;;;;6.3;4.5;;;;;;;13.72;62.38477;935.7042;;;;
2021/11/13 11:45:53;;;;;;;7.6;4.2;;;;;;;13.77;62.54297;935.7054;;;;
2021/11/13 11:48:20;;;;;;;8;4.3;;;;;;;13.4;63.8457;935.6895;;;;
2021/11/13 11:50:46;;;;;;;7.5;4.2;;;;;;;13.49;63.35156;935.6445;;;;
2021/11/13 11:53:11;;;;;;;6.6;4.6;;;;;;;13.33;64.20313;935.6939;;;;
2021/11/13 11:55:36;;;;;;;7.8;4.9;;;;;;;12.88;65.86914;935.66;;;;
2021/11/13 11:58:02;;;;;;;7.9;4.6;;;;;;;13.01;64.80957;935.5547;;;;
2021/11/13 12:00:27;;;;;;;7.2;4.5;;;;;;;13.05;64.63086;935.6685;;;;
2021/11/13 12:02:52;;;;;;;8.6;4.8;;;;;;;13.05;65.17188;935.5828;;;;
2021/11/13 12:05:17;;;;;;;7.6;4.4;;;;;;;13.13;64.18457;935.6848;;;;
2021/11/13 12:07:42;;;;;;;6.6;4.6;;;;;;;12.97;64.29785;935.6685;;;;
2021/11/13 12:10:08;;;;;;;8.9;5.1;;;;;;;12.74;65.125;935.6793;;;;
2021/11/13 12:12:33;;;;;;;6.1;4.3;;;;;;;12.49;65.29492;935.6166;;;;
2021/11/13 12:15:00;;;;;;;6.5;4.3;;;;;;;12.55;65.48633;935.6476;;;;
2021/11/13 12:17:23;;;;;;;6;4.9;;;;;;;12.44;66.28418;935.6647;;;;
2021/11/13 12:19:48;;;;;;;6.7;5;;;;;;;12.46;66.44727;935.6447;;;;
2021/11/13 12:22:13;;;;;;;6.9;4.1;;;;;;;12.36;66.67285;935.6485;;;;
2021/11/13 12:24:39;;;;;;;9;4.5;;;;;;;12.35;66.5918;935.5583;;;;
2021/11/13 12:27:05;;;;;;;7.8;4.7;;;;;;;12.05;68.18457;935.6446;;;;
2021/11/13 12:29:30;;;;;;;6.1;4.5;;;;;;;12.01;68.10938;935.6372;;;;
2021/11/13 12:31:54;;;;;;;7.5;4.7;;;;;;;11.99;68.9873;935.6651;;;;
2021/11/13 12:34:20;;;;;;;5.2;4.1;;;;;;;11.93;68.75977;935.6348;;;;
2021/11/13 12:36:45;;;;;;;6.6;4.3;;;;;;;12.05;68.33301;935.6542;;;;
2021/11/13 12:39:14;;;;;;;6;4.2;;;;;;;12.01;68.17871;935.6443;;;;
2021/11/13 12:41:39;;;;;;;7.4;4.3;;;;;;;11.76;68.94043;935.6796;;;;
2021/11/13 12:44:06;;;;;;;7;4.9;;;;;;;11.78;69.03516;935.6844;;;;
2021/11/13 12:46:31;;;;;;;8.3;4.6;;;;;;;11.77;69.39941;935.7458;;;;
2021/11/13 12:48:56;;;;;;;6;4.6;;;;;;;11.7;70.21387;935.7266;;;;
2021/11/13 12:51:22;;;;;;;8.1;4.9;;;;;;;11.62;70.41699;935.7856;;;;
2021/11/13 12:53:47;;;;;;;6.5;4.4;;;;;;;11.68;70.16406;935.8254;;;;
2021/11/13 12:56:13;;;;;;;8.3;5.1;;;;;;;11.71;69.87012;935.7936;;;;
2021/11/13 12:58:39;;;;;;;7;5;;;;;;;11.65;70.05664;935.788;;;;
2021/11/13 13:01:04;;;;;;;7.8;4.9;;;;;;;11.71;70.30664;935.8519;;;;
2021/11/13 13:03:30;;;;;;;8.5;5.4;;;;;;;11.79;70.28418;935.8491;;;;
2021/11/13 13:05:54;;;;;;;7.1;5;;;;;;;11.94;69.50586;935.8645;;;;
2021/11/13 13:08:19;;;;;;;8.7;5.1;;;;;;;11.98;69.2041;935.8989;;;;
2021/11/13 13:10:44;;;;;;;8.7;4.8;;;;;;;11.76;69.5127;935.9755;;;;
2021/11/13 13:13:09;;;;;;;6.1;4.8;;;;;;;11.73;69.02734;935.9182;;;;
2021/11/13 13:15:36;;;;;;;7.5;5.3;;;;;;;11.61;68.8916;935.9655;;;;
2021/11/13 13:18:01;;;;;;;8.1;5.2;;;;;;;11.56;69.11328;935.9846;;;;
2021/11/13 13:20:26;;;;;;;7.5;5;;;;;;;11.46;69.55664;935.978;;;;
2021/11/13 13:22:51;;;;;;;7.6;5;;;;;;;11.26;71.0332;935.9412;;;;
2021/11/13 13:25:16;;;;;;;8.1;5.6;;;;;;;11.24;70.7666;936.0313;;;;
2021/11/13 13:27:41;;;;;;;8;5.2;;;;;;;11.35;70.71777;936.0867;;;;
2021/11/13 13:30:07;;;;;;;9.3;5.3;;;;;;;11.33;70.53027;936.0347;;;;
2021/11/13 13:32:32;;;;;;;8.8;5.8;;;;;;;11.34;70.37109;936.1136;;;;
2021/11/13 13:34:57;;;;;;;7.9;5.3;;;;;;;11.36;70.22559;936.1122;;;;
2021/11/13 13:37:23;;;;;;;9.1;5.1;;;;;;;11.23;71.0166;936.1046;;;;
2021/11/13 13:39:48;;;;;;;8.8;5.5;;;;;;;11.23;71.16602;936.1071;;;;
2021/11/13 13:42:16;;;;;;;10.9;6.3;;;;;;;11.13;71.62988;936.1295;;;;
2021/11/13 13:45:04;;;;;;;8.1;5.9;;;;;;;11.02;71.40625;936.1633;;;;
2021/11/13 13:47:29;;;;;;;8.9;5.5;;;;;;;11.03;71.39551;936.1609;;;;
2021/11/13 13:49:55;;;;;;;8;6;;;;;;;11.18;71.12207;936.1727;;;;
2021/11/13 13:52:20;;;;;;;8.1;5.3;;;;;;;11.21;71.32129;936.1959;;;;
2021/11/13 13:54:46;;;;;;;8.1;5.4;;;;;;;11.23;70.98242;936.2154;;;;
2021/11/13 13:57:17;;;;;;;7.5;5.6;;;;;;;11.02;71.21191;936.1975;;;;
2021/11/13 13:59:37;;;;;;;11.8;6.1;;;;;;;11.03;71.23438;936.2056;;;;
2021/11/13 14:02:02;;;;;;;7.4;6.1;;;;;;;11.06;71.27441;936.2551;;;;
2021/11/13 14:04:27;;;;;;;10.4;6.4;;;;;;;11.02;71.36035;936.2883;;;;
2021/11/13 14:06:52;;;;;;;7.8;6.1;;;;;;;11.05;71.43164;936.2567;;;;
2021/11/13 14:09:19;;;;;;;9.3;6.5;;;;;;;10.93;71.58691;936.2877;;;;
2021/11/13 14:12:16;;;;;;;10.4;5.8;;;;;;;10.85;71.81152;936.3168;;;;
2021/11/13 14:14:42;;;;;;;10.8;5.8;;;;;;;10.84;71.62695;936.3055;;;;
2021/11/13 14:17:07;;;;;;;11.2;6.5;;;;;;;10.77;72.30078;936.348;;;;
2021/11/13 14:19:39;;;;;;;8.4;6.1;;;;;;;10.81;72.46875;936.3588;;;;
2021/11/13 14:24:23;;;;;;;16.2;8.7;;;;;;;10.73;72.18066;936.3508;;;;
2021/11/13 14:26:48;;;;;;;9;6.1;;;;;;;10.72;72.37207;936.3508;;;;
2021/11/13 14:29:13;;;;;;;9.8;6.4;;;;;;;10.62;73.01758;936.4068;;;;
2021/11/13 14:31:38;;;;;;;8.1;6.1;;;;;;;10.53;73.28906;936.4171;;;;
2021/11/13 14:34:03;;;;;;;12.8;6.6;;;;;;;10.44;74.6084;936.4308;;;;
2021/11/13 14:36:28;;;;;;;10.5;7.2;;;;;;;10.46;74.40723;936.3736;;;;
2021/11/13 14:38:54;;;;;;;13.4;7.3;;;;;;;10.48;74.21582;936.4437;;;;
2021/11/13 14:41:19;;;;;;;11.9;8.2;;;;;;;10.47;74.36328;936.4604;;;;
2021/11/13 14:43:44;;;;;;;10.7;7.5;;;;;;;10.49;74.92676;936.4336;;;;
2021/11/13 14:46:09;;;;;;;12;7.5;;;;;;;10.46;75.25;936.427;;;;
2021/11/13 14:48:34;;;;;;;11;7.6;;;;;;;10.35;75.63281;936.4156;;;;
2021/11/13 14:50:59;;;;;;;10.5;7.3;;;;;;;10.43;75.52148;936.4133;;;;
2021/11/13 14:53:27;;;;;;;12.1;7.8;;;;;;;10.49;75.24512;936.4264;;;;
2021/11/13 14:55:50;;;;;;;11.8;8;;;;;;;10.5;75.5;936.4344;;;;
2021/11/13 14:58:15;;;;;;;10.8;8.1;;;;;;;10.37;76.22949;936.4436;;;;
2021/11/13 15:00:41;;;;;;;11.5;7.9;;;;;;;10.21;77.28418;936.4866;;;;
2021/11/13 15:03:05;;;;;;;13.3;9.5;;;;;;;10.1;78.17773;936.4863;;;;
2021/11/13 15:05:30;;;;;;;13.5;8.2;;;;;;;10.1;78.73633;936.4744;;;;
2021/11/13 15:07:55;;;;;;;14.2;8.4;;;;;;;10.01;79.53125;936.5286;;;;
2021/11/13 15:10:20;;;;;;;11.8;8.8;;;;;;;9.79;81.34766;936.5316;;;;
2021/11/13 15:12:45;;;;;;;11;8;;;;;;;9.85;81.32324;936.5061;;;;
2021/11/13 15:15:10;;;;;;;11.9;8.1;;;;;;;9.74;82.1582;936.5628;;;;
2021/11/13 15:17:37;;;;;;;9.8;7.1;;;;;;;9.71;82.84766;936.5999;;;;
2021/11/13 15:20:03;;;;;;;11.6;7.5;;;;;;;9.56;83.85645;936.6244;;;;
2021/11/13 15:22:27;;;;;;;12.2;7.3;;;;;;;9.58;84.23633;936.7017;;;;
2021/11/13 15:24:52;;;;;;;11.3;7.7;;;;;;;9.62;84.64063;936.7271;;;;
2021/11/13 15:27:17;;;;;;;10.4;7.5;;;;;;;9.6;84.96875;936.7775;;;;
2021/11/13 15:29:42;;;;;;;14.5;9.6;;;;;;;9.64;85.19238;936.7932;;;;
2021/11/13 15:32:07;;;;;;;13.1;8.8;;;;;;;9.49;85.95996;936.8389;;;;
2021/11/13 15:34:36;;;;;;;12.3;8.7;;;;;;;9.38;87.68066;936.878;;;;